PWSweather.com
Personal Weather Stations
Station Observations
KVAGLENALL
West Henrico, Glen Allen, VA 23060-6503

West HenricoGlen Allen, VA 23060-6503

Lat: 37.6554, Lon: -77.5693

Elevation: 273

Station Type: Davis Vantage Pro II

www.glenallenweather.com

High Low Average
Temperature 70.1°F21.2°C 41.2°F5.1°C 56.8°F13.8°C
Dew Point 51.1°F10.6°C 38.5°F3.6°C 44.2°F6.8°C
Winds 9.0 mph 14.5 kmh Calm Calm 4.0 mph SSW6.4 kmh SSW
Wind Gusts 12.1 mph19.5 kmh -- 7.0 mph11.3 kmh
Humidity 90% 46% 64%
Pressure 30.12 in1020.0 mb 29.88 in1011.9 mb -
Precipitation 0.00 in0.0 mm - -
Hour Temp Dew Point Humidity Winds Wind Gusts Pressure Precip Precip Rate Daily Precip Total
12:30 AM 50.4°F10.2°C 41.0°F5.0°C 70% 2.0 mph SSW3.2 kmh SSW 6.1 mph9.8 kmh 30.08 in1018.6 mb 0.00 in0.0 mm 0.00 in0.0 mm 0.00 in0.0 mm
01:30 AM 49.7°F9.8°C 41.0°F5.0°C 72% 3.0 mph SSW4.8 kmh SSW 6.1 mph9.8 kmh 30.07 in1018.3 mb 0.00 in0.0 mm 0.00 in0.0 mm 0.00 in0.0 mm
02:30 AM 48.7°F9.3°C 40.8°F4.9°C 74% 4.0 mph SW6.4 kmh SW 8.1 mph13.0 kmh 30.08 in1018.6 mb 0.00 in0.0 mm 0.00 in0.0 mm 0.00 in0.0 mm
03:30 AM 47.1°F8.4°C 40.3°F4.6°C 77% 4.0 mph SSW6.4 kmh SSW 6.1 mph9.8 kmh 30.07 in1018.3 mb 0.00 in0.0 mm 0.00 in0.0 mm 0.00 in0.0 mm
04:30 AM 44.3°F6.8°C 39.8°F4.3°C 84% Calm Calm -- 30.07 in1018.3 mb 0.00 in0.0 mm 0.00 in0.0 mm 0.00 in0.0 mm
05:30 AM 42.0°F5.6°C 39.0°F3.9°C 89% Calm Calm -- 30.08 in1018.6 mb 0.00 in0.0 mm 0.00 in0.0 mm 0.00 in0.0 mm
06:30 AM 41.2°F5.1°C 38.5°F3.6°C 90% Calm Calm -- 30.09 in1019.0 mb 0.00 in0.0 mm 0.00 in0.0 mm 0.00 in0.0 mm
07:30 AM 44.4°F6.9°C 40.8°F4.9°C 87% 4.0 mph SSW6.4 kmh SSW 5.1 mph8.2 kmh 30.11 in1019.6 mb 0.00 in0.0 mm 0.00 in0.0 mm 0.00 in0.0 mm
08:30 AM 50.7°F10.4°C 43.7°F6.5°C 77% 2.0 mph S3.2 kmh S 5.1 mph8.2 kmh 30.12 in1020.0 mb 0.00 in0.0 mm 0.00 in0.0 mm 0.00 in0.0 mm
09:30 AM 55.2°F12.9°C 45.6°F7.6°C 70% 3.0 mph S4.8 kmh S 7.1 mph11.4 kmh 30.11 in1019.6 mb 0.00 in0.0 mm 0.00 in0.0 mm 0.00 in0.0 mm
10:30 AM 58.8°F14.9°C 47.1°F8.4°C 65% 1.0 mph SSW1.6 kmh SSW 4.0 mph6.4 kmh 30.10 in1019.3 mb 0.00 in0.0 mm 0.00 in0.0 mm 0.00 in0.0 mm
11:00 AM 60.1°F15.6°C 47.5°F8.6°C 63% 2.0 mph S3.2 kmh S 4.0 mph6.4 kmh 30.09 in1019.0 mb 0.00 in0.0 mm 0.00 in0.0 mm 0.00 in0.0 mm
12:00 PM 65.2°F18.4°C 47.7°F8.7°C 53% 5.0 mph SW8.0 kmh SW 8.1 mph13.0 kmh 30.06 in1017.9 mb 0.00 in0.0 mm 0.00 in0.0 mm 0.00 in0.0 mm
01:00 PM 68.7°F20.4°C 50.4°F10.2°C 52% 4.0 mph SW6.4 kmh SW 7.1 mph11.4 kmh 30.01 in1016.3 mb 0.00 in0.0 mm 0.00 in0.0 mm 0.00 in0.0 mm
01:30 PM 69.5°F20.8°C 51.1°F10.6°C 52% 4.0 mph SSW6.4 kmh SSW 12.1 mph19.5 kmh 30.00 in1015.9 mb 0.00 in0.0 mm 0.00 in0.0 mm 0.00 in0.0 mm
02:30 PM 70.1°F21.2°C 48.3°F9.1°C 46% 8.0 mph S12.9 kmh S 11.1 mph17.9 kmh 29.97 in1014.9 mb 0.00 in0.0 mm 0.00 in0.0 mm 0.00 in0.0 mm
03:30 PM 68.8°F20.4°C 47.2°F8.4°C 46% 3.0 mph SW4.8 kmh SW 7.1 mph11.4 kmh 29.96 in1014.6 mb 0.00 in0.0 mm 0.00 in0.0 mm 0.00 in0.0 mm
04:30 PM 66.8°F19.3°C 45.4°F7.4°C 46% 5.0 mph S8.0 kmh S 11.1 mph17.9 kmh 29.95 in1014.2 mb 0.00 in0.0 mm 0.00 in0.0 mm 0.00 in0.0 mm
05:30 PM 63.5°F17.5°C 45.6°F7.6°C 52% 5.0 mph SSE8.0 kmh SSE 10.1 mph16.3 kmh 29.93 in1013.5 mb 0.00 in0.0 mm 0.00 in0.0 mm 0.00 in0.0 mm
06:30 PM 61.4°F16.3°C 45.6°F7.6°C 56% 8.0 mph SSW12.9 kmh SSW 9.1 mph14.6 kmh 29.93 in1013.5 mb 0.00 in0.0 mm 0.00 in0.0 mm 0.00 in0.0 mm
07:30 PM 59.5°F15.3°C 45.2°F7.3°C 59% 4.0 mph SW6.4 kmh SW 10.1 mph16.3 kmh 29.93 in1013.5 mb 0.00 in0.0 mm 0.00 in0.0 mm 0.00 in0.0 mm
08:30 PM 59.5°F15.3°C 44.3°F6.8°C 57% 6.0 mph S9.7 kmh S 11.1 mph17.9 kmh 29.93 in1013.5 mb 0.00 in0.0 mm 0.00 in0.0 mm 0.00 in0.0 mm
09:30 PM 59.1°F15.1°C 43.9°F6.6°C 57% 9.0 mph S14.5 kmh S 12.1 mph19.5 kmh 29.92 in1013.2 mb 0.00 in0.0 mm 0.00 in0.0 mm 0.00 in0.0 mm
10:30 PM 58.3°F14.6°C 43.1°F6.2°C 57% 7.0 mph SW11.3 kmh SW 12.1 mph19.5 kmh 29.90 in1012.5 mb 0.00 in0.0 mm 0.00 in0.0 mm 0.00 in0.0 mm
11:30 PM 57.5°F14.2°C 43.3°F6.3°C 59% 3.0 mph SSW4.8 kmh SSW 12.1 mph19.5 kmh 29.88 in1011.9 mb 0.00 in0.0 mm 0.00 in0.0 mm 0.00 in0.0 mm